createdAt,value
2019-04-22T00:00:36.153Z,0.00
2019-04-22T00:01:34.611Z,0.00
2019-04-22T00:02:40.024Z,0.00
2019-04-22T00:03:37.745Z,0.00
2019-04-22T00:04:49.823Z,0.00
2019-04-22T00:05:56.332Z,0.00
2019-04-22T00:06:57.543Z,0.00
2019-04-22T00:07:56.560Z,0.00
2019-04-22T00:08:55.552Z,0.00
2019-04-22T00:10:03.342Z,0.00
2019-04-22T00:11:02.971Z,0.00
2019-04-22T00:11:59.012Z,0.00
2019-04-22T00:13:01.472Z,0.00
2019-04-22T00:13:57.695Z,0.00
2019-04-22T00:14:55.474Z,0.00
2019-04-22T00:15:54.128Z,0.00
2019-04-22T00:16:58.509Z,0.00
2019-04-22T00:18:03.325Z,0.00
2019-04-22T00:19:08.459Z,0.00
2019-04-22T00:20:58.221Z,0.00
2019-04-22T00:22:03.305Z,0.00
2019-04-22T00:22:56.623Z,0.00
2019-04-22T00:23:59.040Z,0.00
2019-04-22T00:25:03.319Z,0.00
2019-04-22T00:26:06.966Z,0.00
2019-04-22T00:26:58.814Z,0.00
2019-04-22T00:28:02.730Z,0.00
2019-04-22T00:28:58.218Z,0.00
2019-04-22T00:31:00.201Z,0.00
2019-04-22T00:32:58.931Z,0.00
2019-04-22T00:33:57.778Z,0.00
2019-04-22T00:34:53.507Z,0.00
2019-04-22T00:35:54.477Z,0.00
2019-04-22T00:36:58.648Z,0.00
2019-04-22T00:38:08.925Z,0.00
2019-04-22T00:38:58.773Z,0.00
2019-04-22T00:40:15.960Z,0.00
2019-04-22T00:40:59.133Z,0.00
2019-04-22T00:41:56.985Z,0.00
2019-04-22T00:43:03.128Z,0.00
2019-04-22T00:44:06.542Z,0.00
2019-04-22T00:45:04.941Z,0.00
2019-04-22T00:45:57.845Z,0.00
2019-04-22T00:46:59.593Z,0.00
2019-04-22T00:48:05.274Z,0.00
2019-04-22T00:49:45.371Z,0.00
2019-04-22T00:51:08.206Z,0.00
2019-04-22T00:52:03.292Z,0.00
2019-04-22T00:53:04.439Z,0.00
2019-04-22T00:53:56.129Z,0.00
2019-04-22T00:55:00.564Z,0.00
2019-04-22T00:56:00.543Z,0.00
2019-04-22T00:56:54.352Z,0.00
2019-04-22T00:58:02.860Z,0.00
2019-04-22T00:58:50.232Z,0.00
2019-04-22T00:59:58.335Z,0.00
2019-04-22T01:01:03.359Z,0.00
2019-04-22T01:02:05.674Z,0.00
2019-04-22T01:03:03.117Z,0.00
2019-04-22T01:04:04.284Z,0.00
2019-04-22T01:05:03.878Z,0.00
2019-04-22T01:05:57.116Z,0.00
2019-04-22T01:06:57.509Z,0.00
2019-04-22T01:07:56.362Z,0.00
2019-04-22T01:09:01.516Z,0.00
2019-04-22T01:10:01.372Z,0.00
2019-04-22T01:11:06.221Z,0.00
2019-04-22T01:11:52.377Z,0.00
2019-04-22T01:12:59.723Z,0.00
2019-04-22T01:13:55.237Z,0.00
2019-04-22T01:14:55.324Z,0.00
2019-04-22T01:15:58.570Z,0.00
2019-04-22T01:17:01.547Z,0.00
2019-04-22T01:17:57.915Z,0.00
2019-04-22T01:18:55.609Z,0.00
2019-04-22T01:19:58.535Z,0.00
2019-04-22T01:21:20.902Z,0.00
2019-04-22T01:22:13.352Z,0.00
2019-04-22T01:22:53.227Z,0.00
2019-04-22T01:23:56.589Z,0.00
2019-04-22T01:24:52.799Z,0.00
2019-04-22T01:25:50.112Z,0.00
2019-04-22T01:26:50.831Z,0.00
2019-04-22T01:27:51.668Z,0.00
2019-04-22T01:28:45.890Z,0.00
2019-04-22T01:29:46.560Z,0.00
2019-04-22T01:30:40.620Z,0.00
2019-04-22T01:31:36.153Z,0.00
2019-04-22T01:32:38.520Z,0.00
2019-04-22T01:33:39.014Z,0.00
2019-04-22T01:34:48.813Z,0.00
2019-04-22T01:35:49.340Z,0.00
2019-04-22T01:36:55.510Z,0.00
2019-04-22T01:37:52.529Z,0.00
2019-04-22T01:38:58.426Z,0.00
2019-04-22T01:39:56.991Z,0.00
2019-04-22T01:41:02.697Z,0.00
2019-04-22T01:42:03.906Z,0.00
2019-04-22T01:43:01.853Z,0.00
2019-04-22T01:44:09.775Z,0.00
2019-04-22T01:45:00.767Z,0.00
2019-04-22T01:46:02.689Z,0.00
2019-04-22T01:47:00.336Z,0.00
2019-04-22T01:48:00.861Z,0.00
2019-04-22T01:49:02.773Z,0.00
2019-04-22T01:50:03.358Z,0.00
2019-04-22T01:50:56.191Z,0.00
2019-04-22T01:52:14.290Z,0.00
2019-04-22T01:53:00.917Z,0.00
2019-04-22T01:54:04.763Z,0.00
2019-04-22T01:55:02.183Z,0.00
2019-04-22T01:56:14.021Z,0.00
2019-04-22T01:56:59.434Z,0.00
2019-04-22T01:57:53.587Z,0.00
2019-04-22T01:58:49.358Z,0.00
2019-04-22T01:59:51.551Z,0.00
2019-04-22T02:01:13.571Z,0.00
2019-04-22T02:01:55.782Z,0.00
2019-04-22T02:02:59.466Z,0.00
2019-04-22T02:04:01.263Z,0.00
2019-04-22T02:05:01.212Z,0.00
2019-04-22T02:06:02.349Z,0.00
2019-04-22T02:06:57.215Z,0.00
2019-04-22T02:08:02.536Z,0.00
2019-04-22T02:09:04.161Z,0.00
2019-04-22T02:09:55.073Z,0.00
2019-04-22T02:11:17.375Z,0.00
2019-04-22T02:12:00.225Z,0.00
2019-04-22T02:13:03.066Z,0.00
2019-04-22T02:13:59.181Z,0.00
2019-04-22T02:14:59.427Z,0.00
2019-04-22T02:16:00.206Z,0.00
2019-04-22T02:17:06.471Z,0.00
2019-04-22T02:18:01.357Z,0.00
2019-04-22T02:19:00.902Z,0.00
2019-04-22T02:19:57.499Z,0.00
2019-04-22T02:20:59.033Z,0.00
2019-04-22T02:21:54.144Z,0.00
2019-04-22T02:23:15.864Z,0.00
2019-04-22T02:23:59.557Z,0.00
2019-04-22T02:24:58.865Z,0.00
2019-04-22T02:26:01.139Z,0.00
2019-04-22T02:26:54.233Z,0.00
2019-04-22T02:27:56.558Z,0.00
2019-04-22T02:29:01.903Z,0.00
2019-04-22T02:29:56.054Z,0.00
2019-04-22T02:35:23.339Z,0.00
2019-04-22T02:36:56.248Z,0.00
2019-04-22T02:38:07.766Z,0.00
2019-04-22T02:40:03.656Z,0.00
2019-04-22T02:41:16.063Z,0.00
2019-04-22T02:42:06.654Z,0.00
2019-04-22T02:43:01.415Z,0.00
2019-04-22T02:46:22.420Z,0.00
2019-04-22T02:47:13.440Z,0.00
2019-04-22T02:48:10.815Z,0.00
2019-04-22T02:49:22.229Z,0.00
2019-04-22T02:50:02.020Z,0.00
2019-04-22T02:51:12.418Z,0.00
2019-04-22T02:52:01.360Z,0.00
2019-04-22T02:53:10.461Z,0.00
2019-04-22T02:55:01.336Z,0.00
2019-04-22T02:56:12.147Z,0.00
2019-04-22T02:57:03.983Z,0.00
2019-04-22T02:57:57.885Z,0.00
2019-04-22T02:59:09.950Z,0.00
2019-04-22T03:00:07.467Z,0.00
2019-04-22T03:01:05.999Z,0.00
2019-04-22T03:01:54.279Z,0.00
2019-04-22T03:04:06.807Z,0.00
2019-04-22T03:05:08.992Z,0.00
2019-04-22T03:06:16.534Z,0.00
2019-04-22T03:06:46.069Z,0.00
2019-04-22T03:08:10.825Z,0.00
2019-04-22T03:09:05.465Z,0.00
2019-04-22T03:11:04.112Z,0.00
2019-04-22T03:12:14.370Z,0.00
2019-04-22T03:13:06.673Z,0.00
2019-04-22T03:14:54.888Z,0.00
2019-04-22T03:16:07.680Z,0.00
2019-04-22T03:16:57.382Z,0.00
2019-04-22T03:18:03.193Z,0.00
2019-04-22T03:22:00.694Z,0.00
2019-04-22T03:23:05.801Z,0.00
2019-04-22T03:24:20.082Z,0.00
2019-04-22T03:25:35.904Z,0.00
2019-04-22T03:27:00.853Z,0.00
2019-04-22T03:27:54.200Z,0.00
2019-04-22T03:28:54.964Z,0.00
2019-04-22T03:30:36.693Z,0.00
2019-04-22T03:32:36.103Z,0.00
2019-04-22T03:33:12.195Z,0.00
2019-04-22T03:36:10.691Z,0.00
2019-04-22T03:40:22.351Z,0.00
2019-04-22T03:41:03.599Z,0.00
2019-04-22T03:42:06.958Z,0.00
2019-04-22T03:45:10.367Z,5.62
2019-04-22T03:45:51.701Z,5.62
2019-04-22T03:47:11.352Z,5.62
2019-04-22T03:49:18.941Z,5.62
2019-04-22T03:50:15.758Z,5.62
2019-04-22T03:51:09.641Z,11.25
2019-04-22T03:53:14.916Z,11.25
2019-04-22T03:54:11.174Z,11.25
2019-04-22T03:55:05.177Z,11.25
2019-04-22T03:56:15.992Z,11.25
2019-04-22T03:57:26.529Z,16.88
2019-04-22T03:57:56.960Z,16.88
2019-04-22T03:59:11.523Z,16.88
2019-04-22T04:00:14.965Z,16.88
2019-04-22T04:02:08.239Z,22.50
2019-04-22T04:03:00.931Z,22.50
2019-04-22T04:04:13.043Z,22.50
2019-04-22T04:04:58.702Z,28.12
2019-04-22T04:07:14.604Z,28.12
2019-04-22T04:08:03.539Z,28.12
2019-04-22T04:09:14.209Z,33.75
2019-04-22T04:10:10.252Z,33.75
2019-04-22T04:10:57.519Z,33.75
2019-04-22T04:12:04.119Z,39.38
2019-04-22T04:15:14.264Z,39.38
2019-04-22T04:15:55.614Z,45.00
2019-04-22T04:17:06.208Z,45.00
2019-04-22T04:17:54.899Z,45.00
2019-04-22T04:19:08.405Z,50.62
2019-04-22T04:21:14.593Z,50.62
2019-04-22T04:23:08.328Z,56.25
2019-04-22T04:24:11.792Z,56.25
2019-04-22T04:25:19.882Z,56.25
2019-04-22T04:26:00.958Z,61.88
2019-04-22T04:27:20.758Z,61.88
2019-04-22T04:29:22.136Z,67.50
2019-04-22T04:30:59.821Z,67.50
2019-04-22T04:31:02.658Z,67.50
2019-04-22T04:32:18.835Z,73.12
2019-04-22T04:34:03.328Z,73.12
2019-04-22T04:36:02.372Z,78.75
2019-04-22T04:37:07.363Z,78.75
2019-04-22T04:38:13.055Z,78.75
2019-04-22T04:39:00.698Z,84.38
2019-04-22T04:41:12.698Z,84.38
2019-04-22T04:46:11.704Z,95.62
2019-04-22T04:47:17.655Z,95.62
2019-04-22T04:48:00.825Z,95.62
2019-04-22T04:49:09.683Z,101.25
2019-04-22T04:54:13.214Z,106.88
2019-04-22T04:55:10.049Z,106.88
2019-04-22T04:56:02.054Z,112.50
2019-04-22T04:56:56.047Z,112.50
2019-04-22T04:58:27.872Z,118.12
2019-04-22T05:01:08.039Z,123.75
2019-04-22T05:02:02.365Z,123.75
2019-04-22T05:02:58.471Z,129.38
2019-04-22T05:04:04.672Z,129.38
2019-04-22T05:06:05.995Z,135.00
2019-04-22T05:08:00.456Z,140.62
2019-04-22T05:09:11.625Z,140.62
2019-04-22T05:11:16.433Z,146.25
2019-04-22T05:12:12.819Z,146.25
2019-04-22T05:15:03.959Z,157.50
2019-04-22T05:16:17.370Z,157.50
2019-04-22T05:18:10.781Z,157.50
2019-04-22T05:19:05.654Z,163.12
2019-04-22T05:20:05.234Z,163.12
2019-04-22T05:21:07.818Z,163.12
2019-04-22T05:21:58.080Z,168.75
2019-04-22T05:22:51.568Z,168.75
2019-04-22T05:24:05.436Z,174.38
2019-04-22T05:24:58.228Z,174.38
2019-04-22T05:25:59.146Z,180.00
2019-04-22T05:26:56.718Z,180.00
2019-04-22T05:27:52.511Z,185.62
2019-04-22T05:29:02.660Z,185.62
2019-04-22T05:30:21.520Z,191.25
2019-04-22T05:30:56.704Z,191.25
2019-04-22T05:32:10.688Z,196.88
2019-04-22T05:32:59.530Z,196.88
2019-04-22T05:33:56.699Z,202.50
2019-04-22T05:34:52.927Z,202.50
2019-04-22T05:35:56.440Z,208.12
2019-04-22T05:36:52.835Z,213.75
2019-04-22T05:37:58.046Z,225.00
2019-04-22T05:39:00.253Z,219.38
2019-04-22T05:40:06.581Z,230.62
2019-04-22T05:40:56.478Z,264.38
2019-04-22T05:41:56.063Z,270.00
2019-04-22T05:42:55.956Z,270.00
2019-04-22T05:43:58.341Z,253.12
2019-04-22T05:44:55.561Z,281.25
2019-04-22T05:45:54.802Z,253.12
2019-04-22T05:46:53.277Z,253.12
2019-04-22T05:49:54.640Z,264.38
2019-04-22T05:50:56.460Z,281.25
2019-04-22T05:51:55.451Z,298.12
2019-04-22T05:52:49.834Z,320.62
2019-04-22T05:53:59.400Z,354.38
2019-04-22T05:54:55.021Z,371.25
2019-04-22T05:55:56.556Z,371.25
2019-04-22T05:56:47.599Z,382.50
2019-04-22T05:57:51.042Z,382.50
2019-04-22T05:58:58.402Z,388.12
2019-04-22T06:01:21.817Z,399.38
2019-04-22T06:01:59.793Z,405.00
2019-04-22T06:03:20.761Z,416.25
2019-04-22T06:04:04.314Z,427.50
2019-04-22T06:04:59.845Z,427.50
2019-04-22T06:06:00.824Z,427.50
2019-04-22T06:06:54.423Z,433.12
2019-04-22T06:07:53.370Z,438.75
2019-04-22T06:08:57.794Z,450.00
2019-04-22T06:10:02.329Z,455.62
2019-04-22T06:10:58.132Z,461.25
2019-04-22T06:11:52.041Z,472.50
2019-04-22T06:12:49.582Z,478.12
2019-04-22T06:13:51.671Z,489.38
2019-04-22T06:14:54.263Z,495.00
2019-04-22T06:15:52.911Z,500.62
2019-04-22T06:16:58.724Z,511.88
2019-04-22T06:18:02.769Z,517.50
2019-04-22T06:18:56.862Z,528.75
2019-04-22T06:19:50.967Z,540.00
2019-04-22T06:21:50.047Z,601.88
2019-04-22T06:22:58.520Z,691.88
2019-04-22T06:23:54.491Z,1136.25
2019-04-22T06:24:59.202Z,1591.88
2019-04-22T06:26:05.290Z,1710.00
2019-04-22T06:27:01.658Z,1822.50
2019-04-22T06:27:57.569Z,1895.62
2019-04-22T06:28:56.939Z,1890.00
2019-04-22T06:30:57.339Z,1974.38
2019-04-22T06:32:23.011Z,1980.00
2019-04-22T06:32:54.215Z,1946.25
2019-04-22T06:33:48.383Z,2047.50
2019-04-22T06:35:00.188Z,2188.12
2019-04-22T06:35:58.898Z,2261.25
2019-04-22T06:37:01.931Z,2250.00
2019-04-22T06:38:55.651Z,2413.12
2019-04-22T06:39:51.174Z,2300.62
2019-04-22T06:40:55.347Z,2227.50
2019-04-22T06:41:58.871Z,2368.12
2019-04-22T06:42:59.333Z,2621.25
2019-04-22T06:43:58.594Z,2559.38
2019-04-22T06:45:01.392Z,2458.12
2019-04-22T06:45:48.874Z,2660.62
2019-04-22T06:46:55.217Z,2570.62
2019-04-22T06:48:02.623Z,2671.88
2019-04-22T06:48:54.961Z,2739.38
2019-04-22T06:49:55.491Z,2632.50
2019-04-22T06:50:52.833Z,2604.38
2019-04-22T06:51:55.617Z,2536.88
2019-04-22T06:52:57.217Z,2700.00
2019-04-22T06:53:58.684Z,2829.38
2019-04-22T06:54:54.496Z,2643.75
2019-04-22T06:55:51.462Z,2469.38
2019-04-22T06:56:58.094Z,2688.75
2019-04-22T06:57:51.116Z,2272.50
2019-04-22T06:58:53.715Z,1575.00
2019-04-22T06:59:42.619Z,1316.25
2019-04-22T07:00:53.173Z,1181.25
2019-04-22T07:01:57.581Z,1125.00
2019-04-22T07:03:53.073Z,1046.25
2019-04-22T07:04:56.819Z,1012.50
2019-04-22T07:05:52.326Z,995.62
2019-04-22T07:06:56.471Z,990.00
2019-04-22T07:07:53.706Z,984.38
2019-04-22T07:09:13.938Z,978.75
2019-04-22T07:09:54.291Z,973.12
2019-04-22T07:10:50.747Z,973.12
2019-04-22T07:11:49.930Z,967.50
2019-04-22T07:12:56.170Z,961.88
2019-04-22T07:13:57.322Z,961.88
2019-04-22T07:14:53.520Z,961.88
2019-04-22T07:16:03.661Z,961.88
2019-04-22T07:16:51.037Z,961.88
2019-04-22T07:17:58.280Z,961.88
2019-04-22T07:19:53.122Z,956.25
2019-04-22T07:20:56.658Z,961.88
2019-04-22T07:21:50.336Z,961.88
2019-04-22T07:22:51.250Z,967.50
2019-04-22T07:23:56.591Z,973.12
2019-04-22T07:24:55.980Z,984.38
2019-04-22T07:25:56.579Z,990.00
2019-04-22T07:26:54.491Z,990.00
2019-04-22T07:27:52.602Z,1006.88
2019-04-22T07:28:49.191Z,1023.75
2019-04-22T07:29:55.678Z,1051.88
2019-04-22T07:30:52.834Z,1091.25
2019-04-22T07:31:57.447Z,1153.12
2019-04-22T07:33:12.574Z,1265.62
2019-04-22T07:33:51.974Z,1428.75
2019-04-22T07:34:52.241Z,2278.12
2019-04-22T07:36:19.539Z,3166.88
2019-04-22T07:36:58.730Z,3251.25
2019-04-22T07:37:46.966Z,3273.75
2019-04-22T07:38:48.161Z,3448.12
2019-04-22T07:39:51.360Z,3538.12
2019-04-22T07:40:54.427Z,3521.25
2019-04-22T07:41:52.386Z,3498.75
2019-04-22T07:42:49.085Z,3346.88
2019-04-22T07:44:10.268Z,3594.38
2019-04-22T07:45:54.954Z,3645.00
2019-04-22T07:46:56.519Z,3639.38
2019-04-22T07:48:13.006Z,3791.25
2019-04-22T07:48:53.162Z,3718.12
2019-04-22T07:49:55.711Z,3526.88
2019-04-22T07:51:49.488Z,3515.62
2019-04-22T07:52:46.923Z,3600.00
2019-04-22T07:54:52.562Z,3746.25
2019-04-22T07:55:52.192Z,3780.00
2019-04-22T07:57:52.390Z,3830.62
2019-04-22T07:58:48.822Z,4055.62
2019-04-22T07:59:57.561Z,4100.62
2019-04-22T08:00:59.108Z,4297.50
2019-04-22T08:01:53.816Z,4021.88
2019-04-22T08:02:59.740Z,3678.75
2019-04-22T08:04:05.537Z,3858.75
2019-04-22T08:05:59.447Z,3774.38
2019-04-22T08:06:58.765Z,4083.75
2019-04-22T08:08:00.673Z,4038.75
2019-04-22T08:08:55.581Z,4111.88
2019-04-22T08:09:59.685Z,3993.75
2019-04-22T08:10:58.027Z,3864.38
2019-04-22T08:11:52.518Z,4410.00
2019-04-22T08:12:53.385Z,4179.38
2019-04-22T08:13:46.839Z,4123.12
2019-04-22T08:14:53.635Z,4196.25
2019-04-22T08:15:53.998Z,4123.12
2019-04-22T08:17:01.373Z,3931.88
2019-04-22T08:18:54.084Z,4443.75
2019-04-22T08:20:00.555Z,4556.25
2019-04-22T08:20:54.089Z,4753.12
2019-04-22T08:21:52.151Z,4342.50
2019-04-22T08:23:01.183Z,4398.75
2019-04-22T08:24:06.229Z,4404.38
2019-04-22T08:24:58.553Z,4252.50
2019-04-22T08:25:49.157Z,4336.88
2019-04-22T08:26:53.095Z,4291.88
2019-04-22T08:27:53.290Z,4500.00
2019-04-22T08:28:53.393Z,4314.38
2019-04-22T08:29:59.695Z,4381.88
2019-04-22T08:30:53.769Z,4556.25
2019-04-22T08:31:54.755Z,4393.12
2019-04-22T08:32:53.434Z,4770.00
2019-04-22T08:33:54.607Z,4668.75
2019-04-22T08:34:47.139Z,4618.12
2019-04-22T08:36:06.448Z,4460.62
2019-04-22T08:37:12.244Z,5023.12
2019-04-22T08:38:06.617Z,4854.38
2019-04-22T08:39:55.098Z,4685.62
2019-04-22T08:41:01.127Z,4449.38
2019-04-22T08:41:49.849Z,4376.25
2019-04-22T08:42:55.502Z,4623.75
2019-04-22T08:43:57.510Z,5011.88
2019-04-22T08:45:05.614Z,4522.50
2019-04-22T08:45:50.610Z,4921.88
2019-04-22T08:46:57.013Z,4696.88
2019-04-22T08:47:47.854Z,4966.88
2019-04-22T08:48:54.301Z,4618.12
2019-04-22T08:49:57.305Z,4820.62
2019-04-22T08:50:50.798Z,4786.88
2019-04-22T08:51:49.432Z,4803.75
2019-04-22T08:52:58.735Z,4646.25
2019-04-22T08:55:07.782Z,4376.25
2019-04-22T08:55:56.717Z,4421.25
2019-04-22T08:56:49.369Z,4910.62
2019-04-22T08:58:08.461Z,4595.62
2019-04-22T08:58:57.368Z,4657.50
2019-04-22T08:59:54.495Z,4725.00
2019-04-22T09:00:57.100Z,5056.88
2019-04-22T09:01:50.673Z,4899.38
2019-04-22T09:02:54.049Z,4815.00
2019-04-22T09:03:52.440Z,5180.62
2019-04-22T09:04:48.031Z,5304.38
2019-04-22T09:06:10.992Z,5023.12
2019-04-22T09:07:07.661Z,4449.38
2019-04-22T09:07:52.078Z,4950.00
2019-04-22T09:08:55.587Z,4938.75
2019-04-22T09:09:54.067Z,4556.25
2019-04-22T09:10:51.795Z,4989.38
2019-04-22T09:11:54.829Z,5180.62
2019-04-22T09:15:08.125Z,5400.00
2019-04-22T09:15:48.802Z,5495.62
2019-04-22T09:16:48.204Z,5208.75
2019-04-22T09:17:55.888Z,5135.62
2019-04-22T09:18:56.115Z,4837.50
2019-04-22T09:19:56.022Z,4696.88
2019-04-22T09:21:04.753Z,4792.50
2019-04-22T09:21:54.357Z,4938.75
2019-04-22T09:22:53.950Z,5310.00
2019-04-22T09:24:54.720Z,5456.25
2019-04-22T09:25:48.547Z,5360.62
2019-04-22T09:27:51.149Z,5411.25
2019-04-22T09:29:56.416Z,5113.12
2019-04-22T09:30:58.583Z,4831.88
2019-04-22T09:31:53.342Z,5175.00
2019-04-22T09:32:54.468Z,5073.75
2019-04-22T09:33:50.394Z,4668.75
2019-04-22T09:34:51.334Z,4848.75
2019-04-22T09:36:07.797Z,5203.12
2019-04-22T09:37:04.718Z,5236.88
2019-04-22T09:37:58.826Z,5461.88
2019-04-22T09:38:50.667Z,5422.50
2019-04-22T09:40:14.062Z,4899.38
2019-04-22T09:40:55.318Z,5068.12
2019-04-22T09:41:55.684Z,5658.75
2019-04-22T09:42:50.585Z,5703.75
2019-04-22T09:43:53.608Z,5388.75
2019-04-22T09:45:05.787Z,5580.00
2019-04-22T09:46:51.975Z,5523.75
2019-04-22T09:47:55.558Z,5473.12
2019-04-22T09:49:54.879Z,5113.12
2019-04-22T09:50:55.675Z,4663.12
2019-04-22T09:51:52.088Z,4730.62
2019-04-22T09:52:54.746Z,5163.75
2019-04-22T09:55:55.115Z,4753.12
2019-04-22T09:56:49.463Z,5332.50
2019-04-22T09:57:50.972Z,5765.62
2019-04-22T09:58:55.606Z,5619.38
2019-04-22T09:59:57.991Z,5349.38
2019-04-22T10:00:52.833Z,5180.62
2019-04-22T10:02:08.448Z,5495.62
2019-04-22T10:02:55.435Z,5405.62
2019-04-22T10:03:56.242Z,5355.00
2019-04-22T10:04:57.245Z,5551.88
2019-04-22T10:05:58.223Z,5450.62
2019-04-22T10:06:44.342Z,5287.50
2019-04-22T10:07:52.817Z,5287.50
2019-04-22T10:09:59.672Z,5563.12
2019-04-22T10:09:59.798Z,5304.38
2019-04-22T10:10:56.566Z,5445.00
2019-04-22T10:11:51.037Z,5056.88
2019-04-22T10:12:46.618Z,5208.75
2019-04-22T10:13:54.170Z,5568.75
2019-04-22T10:14:49.649Z,5979.38
2019-04-22T10:15:59.949Z,5619.38
2019-04-22T10:16:51.853Z,4933.12
2019-04-22T10:17:52.317Z,5034.38
2019-04-22T10:18:52.977Z,5619.38
2019-04-22T10:19:53.327Z,5900.62
2019-04-22T10:20:54.261Z,5793.75
2019-04-22T10:22:04.544Z,5698.12
2019-04-22T10:22:54.756Z,5698.12
2019-04-22T10:23:55.085Z,5911.88
2019-04-22T10:24:53.652Z,5760.00
2019-04-22T10:25:52.553Z,5208.75
2019-04-22T10:26:55.325Z,5276.25
2019-04-22T10:27:55.490Z,5619.38
2019-04-22T10:28:59.488Z,5934.38
2019-04-22T10:29:53.724Z,5911.88
2019-04-22T10:31:49.406Z,5675.62
2019-04-22T10:32:47.568Z,4860.00
2019-04-22T10:34:34.681Z,4921.88
2019-04-22T10:35:28.375Z,5062.50
2019-04-22T10:36:25.597Z,5518.12
2019-04-22T10:37:25.656Z,5349.38
2019-04-22T10:38:26.293Z,4713.75
2019-04-22T10:39:37.883Z,4567.50
2019-04-22T10:40:25.821Z,5175.00
2019-04-22T10:41:24.669Z,5698.12
2019-04-22T10:42:25.064Z,5613.75
2019-04-22T10:43:25.328Z,5349.38
2019-04-22T10:44:24.639Z,5197.50
2019-04-22T10:45:25.976Z,4989.38
2019-04-22T10:46:26.273Z,4927.50
2019-04-22T10:47:25.764Z,5641.88
2019-04-22T10:48:26.108Z,6007.50
2019-04-22T10:49:24.630Z,5422.50
2019-04-22T10:50:24.707Z,5298.75
2019-04-22T10:51:24.577Z,5135.62
2019-04-22T10:52:25.643Z,4663.12
2019-04-22T10:53:25.736Z,4899.38
2019-04-22T10:54:25.342Z,5495.62
2019-04-22T10:55:25.422Z,5523.75
2019-04-22T10:56:25.306Z,5400.00
2019-04-22T10:57:25.611Z,5321.25
2019-04-22T10:58:24.827Z,4848.75
2019-04-22T10:59:24.762Z,4854.38
2019-04-22T11:00:24.486Z,5512.50
2019-04-22T11:01:25.628Z,5664.38
2019-04-22T11:02:25.646Z,5287.50
2019-04-22T11:03:24.690Z,4770.00
2019-04-22T11:04:25.863Z,4820.62
2019-04-22T11:05:24.437Z,5146.88
2019-04-22T11:06:25.366Z,4843.12
2019-04-22T11:07:30.844Z,4865.62
2019-04-22T11:08:37.847Z,5270.62
2019-04-22T11:09:26.731Z,5450.62
2019-04-22T11:10:41.310Z,5411.25
2019-04-22T11:11:35.821Z,5242.50
2019-04-22T11:12:28.859Z,5326.88
2019-04-22T11:13:26.124Z,5490.00
2019-04-22T11:14:24.351Z,5529.38
2019-04-22T11:15:24.512Z,5281.88
2019-04-22T11:16:25.672Z,5124.38
2019-04-22T11:17:25.945Z,5040.00
2019-04-22T11:18:25.360Z,5203.12
2019-04-22T11:19:25.559Z,5321.25
2019-04-22T11:20:24.295Z,5523.75
2019-04-22T11:21:25.395Z,5450.62
2019-04-22T11:22:28.517Z,5096.25
2019-04-22T11:23:26.905Z,5090.62
2019-04-22T11:24:24.274Z,5366.25
2019-04-22T11:25:25.514Z,5141.25
2019-04-22T11:26:24.235Z,5062.50
2019-04-22T11:27:25.335Z,5293.12
2019-04-22T11:28:25.525Z,5428.12
2019-04-22T11:29:25.574Z,5281.88
2019-04-22T11:30:27.622Z,5107.50
2019-04-22T11:31:24.240Z,5107.50
2019-04-22T11:32:24.418Z,4938.75
2019-04-22T11:33:24.666Z,4494.38
2019-04-22T11:34:24.909Z,4303.12
2019-04-22T11:35:24.149Z,5090.62
2019-04-22T11:36:26.936Z,5186.25
2019-04-22T11:37:24.902Z,4882.50
2019-04-22T11:38:24.686Z,4809.38
2019-04-22T11:39:24.108Z,4876.88
2019-04-22T11:40:32.050Z,4972.50
2019-04-22T11:41:25.517Z,4995.00
2019-04-22T11:42:24.084Z,4916.25
2019-04-22T11:43:24.252Z,4871.25
2019-04-22T11:44:25.395Z,5265.00
2019-04-22T11:45:24.051Z,5478.75
2019-04-22T11:46:25.277Z,5034.38
2019-04-22T11:47:25.447Z,4860.00
2019-04-22T11:48:24.024Z,5096.25
2019-04-22T11:49:24.012Z,4786.88
2019-04-22T11:50:24.256Z,4303.12
2019-04-22T11:51:24.373Z,4657.50
2019-04-22T11:52:24.679Z,5113.12
2019-04-22T11:53:24.860Z,5231.25
2019-04-22T11:54:25.081Z,5383.12
2019-04-22T11:55:24.572Z,5146.88
2019-04-22T11:56:25.156Z,4590.00
2019-04-22T11:57:25.226Z,4370.62
2019-04-22T11:58:24.651Z,4854.38
2019-04-22T11:59:24.903Z,5377.50
2019-04-22T12:00:25.021Z,5045.62
2019-04-22T12:01:24.651Z,4876.88
2019-04-22T12:02:25.304Z,4995.00
2019-04-22T12:03:25.361Z,5203.12
2019-04-22T12:04:23.864Z,5073.75
2019-04-22T12:05:23.852Z,4415.62
2019-04-22T12:06:24.080Z,4415.62
2019-04-22T12:07:23.834Z,4696.88
2019-04-22T12:08:25.100Z,4966.88
2019-04-22T12:09:23.896Z,5203.12
2019-04-22T12:10:33.007Z,4899.38
2019-04-22T12:11:26.145Z,4573.12
2019-04-22T12:12:23.783Z,4837.50
2019-04-22T12:13:24.182Z,5101.88
2019-04-22T12:14:24.029Z,5310.00
2019-04-22T12:15:24.656Z,5141.25
2019-04-22T12:16:23.742Z,4933.12
2019-04-22T12:17:24.259Z,5090.62
2019-04-22T12:18:24.949Z,5073.75
2019-04-22T12:19:25.050Z,4916.25
2019-04-22T12:20:25.388Z,4550.62
2019-04-22T12:21:23.692Z,4595.62
2019-04-22T12:22:25.113Z,4601.25
2019-04-22T12:23:25.070Z,4432.50
2019-04-22T12:24:25.089Z,4325.62
2019-04-22T12:25:34.823Z,4556.25
2019-04-22T12:26:25.488Z,4820.62
2019-04-22T12:27:24.803Z,4944.38
2019-04-22T12:28:23.621Z,4871.25
2019-04-22T12:29:24.770Z,4798.12
2019-04-22T12:30:23.738Z,4590.00
2019-04-22T12:31:23.873Z,3414.38
2019-04-22T12:32:23.578Z,1755.00
2019-04-22T12:33:23.638Z,1198.12
2019-04-22T12:34:23.814Z,1136.25
2019-04-22T12:35:24.323Z,1113.75
2019-04-22T12:36:24.524Z,1091.25
2019-04-22T12:37:31.568Z,1074.38
2019-04-22T12:38:24.518Z,1063.12
2019-04-22T12:39:23.511Z,1063.12
2019-04-22T12:40:33.808Z,1063.12
2019-04-22T12:41:25.845Z,1063.12
2019-04-22T12:42:23.664Z,1068.75
2019-04-22T12:43:25.703Z,1080.00
2019-04-22T12:44:24.451Z,1091.25
2019-04-22T12:45:24.594Z,1119.38
2019-04-22T12:46:24.053Z,1220.62
2019-04-22T12:47:24.348Z,2463.75
2019-04-22T12:48:23.417Z,3988.12
2019-04-22T12:49:23.404Z,4005.00
2019-04-22T12:50:28.330Z,4089.38
2019-04-22T12:51:24.998Z,4258.12
2019-04-22T12:52:32.363Z,2913.75
2019-04-22T12:53:27.664Z,1462.50
2019-04-22T12:54:24.614Z,1226.25
2019-04-22T12:55:23.801Z,1350.00
2019-04-22T12:56:23.847Z,2559.38
2019-04-22T12:57:24.765Z,3915.00
2019-04-22T12:58:23.563Z,4196.25
2019-04-22T12:59:23.730Z,4291.88
2019-04-22T13:00:24.559Z,4500.00
2019-04-22T13:01:24.509Z,4021.88
2019-04-22T13:02:23.281Z,3262.50
2019-04-22T13:03:24.527Z,2553.75
2019-04-22T13:04:25.137Z,1603.12
2019-04-22T13:05:23.242Z,1113.75
2019-04-22T13:06:23.648Z,1063.12
2019-04-22T13:07:24.108Z,1040.62
2019-04-22T13:08:23.566Z,1029.38
2019-04-22T13:09:23.279Z,1018.12
2019-04-22T13:10:24.152Z,1012.50
2019-04-22T13:11:29.959Z,1012.50
2019-04-22T13:12:24.836Z,1018.12
2019-04-22T13:13:23.150Z,1001.25
2019-04-22T13:14:23.308Z,1001.25
2019-04-22T13:15:23.865Z,995.62
2019-04-22T13:16:23.119Z,995.62
2019-04-22T13:17:23.209Z,1001.25
2019-04-22T13:18:31.678Z,995.62
2019-04-22T13:19:26.455Z,995.62
2019-04-22T13:20:24.307Z,995.62
2019-04-22T13:21:24.338Z,990.00
2019-04-22T13:22:23.203Z,1001.25
2019-04-22T13:23:23.047Z,995.62
2019-04-22T13:24:23.777Z,990.00
2019-04-22T13:25:26.089Z,990.00
2019-04-22T13:26:23.236Z,995.62
2019-04-22T13:27:23.004Z,995.62
2019-04-22T13:28:23.151Z,995.62
2019-04-22T13:29:23.308Z,990.00
2019-04-22T13:30:22.999Z,984.38
2019-04-22T13:31:24.434Z,984.38
2019-04-22T13:32:22.952Z,984.38
2019-04-22T13:33:23.252Z,967.50
2019-04-22T13:34:31.476Z,967.50
2019-04-22T13:35:24.645Z,956.25
2019-04-22T13:36:24.489Z,967.50
2019-04-22T13:37:23.272Z,961.88
2019-04-22T13:38:22.889Z,956.25
2019-04-22T13:39:22.942Z,945.00
2019-04-22T13:40:23.366Z,928.12
2019-04-22T13:41:31.718Z,939.38
2019-04-22T13:42:25.340Z,933.75
2019-04-22T13:43:22.921Z,933.75
2019-04-22T13:44:23.093Z,928.12
2019-04-22T13:45:22.815Z,922.50
2019-04-22T13:46:24.004Z,911.25
2019-04-22T13:47:41.503Z,905.62
2019-04-22T13:48:38.719Z,900.00
2019-04-22T13:49:59.287Z,894.38
2019-04-22T13:51:52.203Z,888.75
2019-04-22T13:52:53.475Z,871.88
2019-04-22T13:54:13.704Z,860.62
2019-04-22T13:55:54.735Z,838.12